Forest City, IA

2:54 PM CST on November 22, 2019 (GMT -0600)
Forest City Municipal

Weather History for KFXY - October, 2019

Change the Weather History Date:

Tuesday, October 22, 2019

  Actual Average Record
Temperature  
Mean Temperature 42 °F -  
Max Temperature 50 °F 60 °F 71 °F (2016)
Min Temperature 35 °F 38 °F 30 °F (2013)
Degree Days  
Heating Degree Days 22    
Moisture  
Dew Point 35 °F    
Average Humidity 76    
Maximum Humidity 100    
Minimum Humidity 43    
Precipitation  
Precipitation 0.02 in - - ()
Sea Level Pressure  
Sea Level Pressure 29.61 in    
Wind  
Wind Speed 23 mph (WNW)    
Max Wind Speed 31 mph    
Max Gust Speed 41 mph    
Visibility 9 miles    
Events Rain    
Averages and records for this station are not official NWS values.
T = Trace of Precipitation, MM = Missing Value Source: NWS Daily Summary

Daily Weather History Graph

Daily Weather History Graph

Search for Another Location

Airport or City:

Astronomy

Oct. 22, 2019 Rise Set
Actual Time 7:36 AM CDT 6:20 PM CDT
Civil Twilight 7:07 AM CDT 6:49 PM CDT
Nautical Twilight 6:34 AM CDT 7:22 PM CDT
Astronomical Twilight 6:01 AM CDT 7:55 PM CDT
Moon 12:33 AM CDT 3:43 PM CDT
Length of Visible Light 11h 42m
Length of Day
10h 44m
Last Quarter, 37% of the Moon is Illuminated
Oct 22
Last Quarter
Oct 27
New
Nov 4
First Quarter
Nov 12
Full
Nov 19
Last Quarter

Hourly Weather History & Observations

Time (CDT) Temp. Windchill Dew Point Humidity Pressure Visibility Wind Dir Wind Speed Gust Speed Precip Events Conditions
12:15 AM 42.8 °F 32.7 °F 42.8 °F 100% 29.30 in 7.0 mi WNW 27.6 mph 34.5 mph N/A Rain Light Rain
12:35 AM 42.8 °F 33.8 °F 42.8 °F 100% 29.31 in 4.0 mi WNW 21.9 mph 35.7 mph N/A Rain Light Rain
12:55 AM 42.8 °F 33.3 °F 42.8 °F 100% 29.32 in 7.0 mi WNW 24.2 mph 40.3 mph 0.01 in Rain Light Rain
1:15 AM 42.8 °F 33.3 °F 42.8 °F 100% 29.33 in 5.0 mi WNW 24.2 mph 38.0 mph N/A Rain Light Rain
1:35 AM 42.8 °F 32.3 °F 42.8 °F 100% 29.34 in 5.0 mi WNW 29.9 mph 40.3 mph N/A Rain Light Rain
1:55 AM 42.8 °F 32.9 °F 42.8 °F 100% 29.36 in 7.0 mi WNW 26.5 mph 35.7 mph N/A Rain Light Rain
2:15 AM 42.8 °F 33.1 °F 42.8 °F 100% 29.37 in 7.0 mi WNW 25.3 mph 40.3 mph N/A Rain Light Rain
2:35 AM 42.8 °F 32.3 °F 41.0 °F 93% 29.38 in 7.0 mi WNW 29.9 mph 41.4 mph N/A Rain Light Rain
2:55 AM 42.8 °F 32.5 °F 41.0 °F 93% 29.39 in 10.0 mi WNW 28.8 mph 40.3 mph N/A Rain Rain
3:15 AM 42.8 °F 33.3 °F 41.0 °F 93% 29.41 in 10.0 mi WNW 24.2 mph 41.4 mph N/A Rain Light Rain
3:35 AM 42.8 °F 32.3 °F 41.0 °F 93% 29.42 in 10.0 mi WNW 29.9 mph 39.1 mph N/A   Light Drizzle
3:55 AM 42.8 °F 32.7 °F 41.0 °F 93% 29.43 in 10.0 mi WNW 27.6 mph 36.8 mph N/A Rain Rain
4:15 AM 42.8 °F 32.1 °F 41.0 °F 93% 29.44 in 10.0 mi WNW 31.1 mph 40.3 mph N/A   Light Drizzle
4:35 AM 42.8 °F 32.9 °F 41.0 °F 93% 29.46 in 10.0 mi WNW 26.5 mph 39.1 mph N/A   Overcast
4:55 AM 41.0 °F 31.4 °F 41.0 °F 100% 29.47 in 7.0 mi WNW 21.9 mph 40.3 mph N/A Rain Light Rain
5:15 AM 41.0 °F 30.5 °F 41.0 °F 100% 29.48 in 7.0 mi WNW 26.5 mph 34.5 mph N/A Rain Light Rain
5:35 AM 41.0 °F 30.7 °F 41.0 °F 100% 29.49 in 7.0 mi WNW 25.3 mph 33.4 mph N/A Rain Light Rain
5:55 AM 41.0 °F 30.9 °F 41.0 °F 100% 29.50 in 7.0 mi WNW 24.2 mph 31.1 mph 0.01 in Rain Light Rain
6:15 AM 41.0 °F 30.7 °F 39.2 °F 93% 29.51 in 10.0 mi WNW 25.3 mph 40.3 mph N/A Rain Light Rain
6:35 AM 41.0 °F 30.0 °F 39.2 °F 93% 29.52 in 10.0 mi WNW 28.8 mph 36.8 mph N/A   Overcast
6:55 AM 41.0 °F 31.1 °F 39.2 °F 93% 29.53 in 10.0 mi WNW 23.0 mph 35.7 mph N/A   Overcast
7:35 AM 41.0 °F 30.9 °F 37.4 °F 87% 29.55 in 10.0 mi WNW 24.2 mph 38.0 mph N/A   Overcast
7:55 AM 41.0 °F 31.9 °F 37.4 °F 87% 29.55 in 10.0 mi WNW 19.6 mph 32.2 mph N/A   Overcast
8:15 AM 41.0 °F 31.1 °F 37.4 °F 87% 29.57 in 10.0 mi WNW 23.0 mph 32.2 mph N/A   Overcast
8:35 AM 41.0 °F 31.4 °F 37.4 °F 87% 29.57 in 10.0 mi WNW 21.9 mph 32.2 mph N/A   Overcast
8:55 AM 41.0 °F 32.2 °F 37.4 °F 87% 29.59 in 10.0 mi WNW 18.4 mph 32.2 mph N/A   Overcast
9:15 AM 41.0 °F 30.9 °F 37.4 °F 87% 29.60 in 10.0 mi WNW 24.2 mph 34.5 mph N/A   Overcast
9:35 AM 41.0 °F 31.9 °F 37.4 °F 87% 29.61 in 10.0 mi WNW 19.6 mph 34.5 mph N/A   Overcast
9:55 AM 41.0 °F 31.1 °F 37.4 °F 87% 29.61 in 10.0 mi WNW 23.0 mph 29.9 mph N/A   Overcast
10:15 AM 41.0 °F 30.9 °F 37.4 °F 87% 29.62 in 10.0 mi WNW 24.2 mph 31.1 mph N/A   Overcast
10:35 AM 42.8 °F 32.9 °F 35.6 °F 76% 29.62 in 10.0 mi WNW 26.5 mph 35.7 mph N/A   Overcast
10:55 AM 42.8 °F 33.5 °F 37.4 °F 81% 29.63 in 10.0 mi WNW 23.0 mph 29.9 mph N/A   Overcast
11:15 AM 42.8 °F 34.0 °F 35.6 °F 76% 29.64 in 10.0 mi WNW 20.7 mph 29.9 mph N/A   Overcast
11:35 AM 42.8 °F 34.0 °F 35.6 °F 76% 29.65 in 10.0 mi WNW 20.7 mph 32.2 mph N/A   Overcast
11:55 AM 42.8 °F 33.1 °F 33.8 °F 70% 29.65 in 10.0 mi WNW 25.3 mph 36.8 mph N/A   Overcast
12:15 PM 44.6 °F 34.7 °F 33.8 °F 66% 29.65 in 10.0 mi WNW 29.9 mph 39.1 mph N/A   Mostly Cloudy
12:35 PM 46.4 °F 37.4 °F 35.6 °F 66% 29.65 in 10.0 mi WNW 28.8 mph 36.8 mph N/A   Overcast
12:55 PM 46.4 °F 37.9 °F 35.6 °F 66% 29.65 in 10.0 mi West 25.3 mph 33.4 mph N/A   Overcast
1:15 PM 48.2 °F - 35.6 °F 62% 29.65 in 10.0 mi WNW 23.0 mph 35.7 mph N/A   Overcast
1:35 PM 48.2 °F - 33.8 °F 58% 29.66 in 10.0 mi WNW 25.3 mph 34.5 mph N/A   Overcast
1:55 PM 50.0 °F - 32.0 °F 50% 29.66 in 10.0 mi WNW 24.2 mph 36.8 mph N/A   Overcast
2:15 PM 50.0 °F - 30.2 °F 47% 29.67 in 10.0 mi WNW 25.3 mph 33.4 mph N/A   Scattered Clouds
2:35 PM 50.0 °F - 30.2 °F 47% 29.67 in 10.0 mi WNW 24.2 mph 31.1 mph N/A   Clear
2:55 PM 50.0 °F - 28.4 °F 43% 29.68 in 10.0 mi WNW 28.8 mph 34.5 mph N/A   Clear
3:15 PM 50.0 °F - 28.4 °F 43% 29.68 in 10.0 mi WNW 25.3 mph 35.7 mph N/A   Clear
3:35 PM 50.0 °F - 28.4 °F 43% 29.69 in 10.0 mi WNW 27.6 mph 34.5 mph N/A   Clear
3:55 PM 50.0 °F - 28.4 °F 43% 29.70 in 10.0 mi WNW 21.9 mph 33.4 mph N/A   Scattered Clouds
4:15 PM 48.2 °F - 28.4 °F 46% 29.71 in 10.0 mi WNW 23.0 mph 39.1 mph N/A   Scattered Clouds
4:35 PM 46.4 °F 38.5 °F 30.2 °F 53% 29.71 in 10.0 mi WNW 21.9 mph 29.9 mph N/A   Scattered Clouds
4:55 PM 48.2 °F - 30.2 °F 50% 29.72 in 10.0 mi WNW 21.9 mph 32.2 mph N/A   Scattered Clouds
5:15 PM 46.4 °F 40.1 °F 30.2 °F 53% 29.73 in 10.0 mi WNW 15.0 mph 25.3 mph N/A   Scattered Clouds
5:35 PM 46.4 °F 40.1 °F 30.2 °F 53% 29.74 in 10.0 mi WNW 15.0 mph 21.9 mph N/A   Mostly Cloudy
5:55 PM 46.4 °F 39.8 °F 30.2 °F 53% 29.74 in 10.0 mi WNW 16.1 mph 25.3 mph N/A   Mostly Cloudy
6:15 PM 46.4 °F 40.4 °F 30.2 °F 53% 29.75 in 10.0 mi West 13.8 mph 20.7 mph N/A   Mostly Cloudy
6:35 PM 44.6 °F 38.1 °F 30.2 °F 57% 29.75 in 10.0 mi WNW 13.8 mph 19.6 mph N/A   Mostly Cloudy
6:55 PM 44.6 °F 37.8 °F 30.2 °F 57% 29.76 in 10.0 mi West 15.0 mph 21.9 mph N/A   Scattered Clouds
7:15 PM 44.6 °F 38.4 °F 30.2 °F 57% 29.77 in 10.0 mi WNW 12.7 mph - N/A   Scattered Clouds
7:55 PM 42.8 °F 38.0 °F 30.2 °F 61% 29.78 in 10.0 mi West 8.1 mph - N/A   Clear
8:15 PM 42.8 °F 38.0 °F 32.0 °F 66% 29.78 in 10.0 mi West 8.1 mph - N/A   Clear
8:35 PM 41.0 °F 35.8 °F 32.0 °F 70% 29.78 in 10.0 mi West 8.1 mph - N/A   Clear
8:55 PM 41.0 °F 35.8 °F 32.0 °F 70% 29.78 in 10.0 mi West 8.1 mph - N/A   Clear
9:15 PM 41.0 °F 35.8 °F 32.0 °F 70% 29.78 in 10.0 mi West 8.1 mph - N/A   Clear
9:35 PM 41.0 °F 35.8 °F 32.0 °F 70% 29.79 in 10.0 mi West 8.1 mph - N/A   Clear
10:15 PM 39.2 °F 34.2 °F 32.0 °F 75% 29.80 in 10.0 mi West 6.9 mph - N/A   Clear
10:35 PM 39.2 °F 35.0 °F 32.0 °F 75% 29.80 in 10.0 mi West 5.8 mph - N/A   Clear
10:55 PM 37.4 °F 32.1 °F 32.0 °F 81% 29.80 in 10.0 mi West 6.9 mph - N/A   Clear
11:35 PM 35.6 °F - 32.0 °F 87% 29.80 in 10.0 mi Calm Calm - N/A   Clear
11:55 PM 35.6 °F - 32.0 °F 87% 29.80 in 10.0 mi Calm Calm - N/A   Clear